createdAt,value
2018-04-07T00:00:27.633Z,76.30
2018-04-07T00:02:56.150Z,75.32
2018-04-07T00:05:24.786Z,75.94
2018-04-07T00:07:53.309Z,75.82
2018-04-07T00:10:23.101Z,78.28
2018-04-07T00:12:51.626Z,77.15
2018-04-07T00:15:44.980Z,77.80
2018-04-07T00:18:20.978Z,77.54
2018-04-07T00:20:49.518Z,76.05
2018-04-07T00:23:18.009Z,76.31
2018-04-07T00:25:46.526Z,76.71
2018-04-07T00:28:18.721Z,77.07
2018-04-07T00:30:48.149Z,78.32
2018-04-07T00:33:17.562Z,78.58
2018-04-07T00:35:46.126Z,78.73
2018-04-07T00:38:46.189Z,78.42
2018-04-07T00:41:30.217Z,79.42
2018-04-07T00:43:58.746Z,82.35
2018-04-07T00:46:27.274Z,81.98
2018-04-07T00:48:56.056Z,82.47
2018-04-07T00:51:45.369Z,83.42
2018-04-07T00:54:25.875Z,82.99
2018-04-07T00:56:54.390Z,85.40
2018-04-07T00:59:28.719Z,83.34
2018-04-07T01:01:57.907Z,83.94
2018-04-07T01:04:28.334Z,82.28
2018-04-07T01:06:57.397Z,84.45
2018-04-07T01:09:25.895Z,83.59
2018-04-07T01:11:55.062Z,84.29
2018-04-07T01:14:26.941Z,85.42
2018-04-07T01:16:55.465Z,86.69
2018-04-07T01:19:27.446Z,86.39
2018-04-07T01:21:55.969Z,85.07
2018-04-07T01:24:37.898Z,84.62
2018-04-07T01:27:08.092Z,84.08
2018-04-07T01:29:45.267Z,84.57
2018-04-07T01:32:26.686Z,83.56
2018-04-07T01:34:55.214Z,82.59
2018-04-07T01:37:27.323Z,82.94
2018-04-07T01:39:55.861Z,84.49
2018-04-07T01:42:37.117Z,87.75
2018-04-07T01:45:16.710Z,88.06
2018-04-07T01:47:46.158Z,87.12
2018-04-07T01:50:14.653Z,85.96
2018-04-07T01:52:45.323Z,84.48
2018-04-07T01:55:31.490Z,85.29
2018-04-07T01:58:00.006Z,83.53
2018-04-07T02:00:45.831Z,84.87
2018-04-07T02:03:14.341Z,85.52
2018-04-07T02:05:42.852Z,86.14
2018-04-07T02:08:11.365Z,85.18
2018-04-07T02:10:47.414Z,86.43
2018-04-07T02:13:28.521Z,86.05
2018-04-07T02:15:58.951Z,85.45
2018-04-07T02:18:27.457Z,85.59
2018-04-07T02:21:04.802Z,86.79
2018-04-07T02:23:37.993Z,85.28
2018-04-07T02:26:07.614Z,84.33
2018-04-07T02:28:45.291Z,84.63
2018-04-07T02:31:13.810Z,84.69
2018-04-07T02:34:04.776Z,84.13
2018-04-07T02:36:41.603Z,85.67
2018-04-07T02:39:11.054Z,83.98
2018-04-07T02:41:55.826Z,83.98
2018-04-07T02:44:25.007Z,86.17
2018-04-07T02:46:53.534Z,85.43
2018-04-07T02:49:22.690Z,84.95
2018-04-07T02:51:56.690Z,85.70
2018-04-07T02:54:25.207Z,85.87
2018-04-07T02:57:03.392Z,85.22
2018-04-07T02:59:34.072Z,85.42
2018-04-07T03:02:02.586Z,86.67
2018-04-07T03:04:45.589Z,88.10
2018-04-07T03:07:14.098Z,86.70
2018-04-07T03:09:56.138Z,87.58
2018-04-07T03:12:24.626Z,87.28
2018-04-07T03:15:02.641Z,87.12
2018-04-07T03:17:32.052Z,86.99
2018-04-07T03:20:10.589Z,87.02
2018-04-07T03:22:48.902Z,87.40
2018-04-07T03:25:17.422Z,86.86
2018-04-07T03:27:47.864Z,87.31
2018-04-07T03:30:16.448Z,87.83
2018-04-07T03:32:45.869Z,87.18
2018-04-07T03:35:17.634Z,88.06
2018-04-07T03:37:46.583Z,88.09
2018-04-07T03:40:16.968Z,86.78
2018-04-07T03:42:47.951Z,88.03
2018-04-07T03:45:21.065Z,89.33
2018-04-07T03:47:49.553Z,89.02
2018-04-07T03:50:18.057Z,89.28
2018-04-07T03:52:46.581Z,88.73
2018-04-07T03:55:32.510Z,89.95
2018-04-07T03:58:23.954Z,89.21
2018-04-07T04:00:58.154Z,89.33
2018-04-07T04:03:26.666Z,88.61
2018-04-07T04:05:55.860Z,88.04
2018-04-07T04:08:24.348Z,87.68
2018-04-07T04:10:53.748Z,87.90
2018-04-07T04:13:22.913Z,87.87
2018-04-07T04:15:51.461Z,89.31
2018-04-07T04:18:20.987Z,88.27
2018-04-07T04:20:49.690Z,88.84
2018-04-07T04:23:18.298Z,88.20
2018-04-07T04:25:46.781Z,89.40
2018-04-07T04:28:23.054Z,89.09
2018-04-07T04:30:51.577Z,89.24
2018-04-07T04:33:21.167Z,88.09
2018-04-07T04:35:49.746Z,88.67
2018-04-07T04:38:18.236Z,88.81
2018-04-07T04:40:46.769Z,88.25
2018-04-07T04:43:15.713Z,88.17
2018-04-07T04:45:44.234Z,87.99
2018-04-07T04:48:13.280Z,89.09
2018-04-07T04:50:54.846Z,88.18
2018-04-07T04:53:53.194Z,87.62
2018-04-07T04:56:23.692Z,87.12
2018-04-07T04:58:53.122Z,87.70
2018-04-07T05:01:52.930Z,87.08
2018-04-07T05:04:22.282Z,87.41
2018-04-07T05:06:53.863Z,86.51
2018-04-07T05:09:36.631Z,86.51
2018-04-07T05:12:05.165Z,87.07
2018-04-07T05:14:37.602Z,86.74
2018-04-07T05:17:07.453Z,86.74
2018-04-07T05:19:43.621Z,86.63
2018-04-07T05:22:15.131Z,86.37
2018-04-07T05:24:47.512Z,85.63
2018-04-07T05:27:19.895Z,85.58
2018-04-07T05:29:52.103Z,86.00
2018-04-07T05:32:35.166Z,86.36
2018-04-07T05:35:06.951Z,85.99
2018-04-07T05:37:42.705Z,87.91
2018-04-07T05:40:15.559Z,86.42
2018-04-07T05:42:48.582Z,85.69
2018-04-07T05:45:39.362Z,84.86
2018-04-07T05:48:11.817Z,86.12
2018-04-07T05:50:43.461Z,87.27
2018-04-07T05:53:37.849Z,87.14
2018-04-07T05:56:15.550Z,88.55
2018-04-07T05:58:48.150Z,88.32
2018-04-07T06:01:19.735Z,86.97
2018-04-07T06:03:49.182Z,86.63
2018-04-07T06:06:27.827Z,86.22
2018-04-07T06:08:58.217Z,84.04
2018-04-07T06:11:27.630Z,84.64
2018-04-07T06:13:58.883Z,85.23
2018-04-07T06:16:36.374Z,83.56
2018-04-07T06:19:07.898Z,83.62
2018-04-07T06:21:47.378Z,82.83
2018-04-07T06:24:40.521Z,83.36
2018-04-07T06:27:12.445Z,82.14
2018-04-07T06:29:44.354Z,82.17
2018-04-07T06:32:24.780Z,80.79
2018-04-07T06:34:56.784Z,80.81
2018-04-07T06:37:28.496Z,80.08
2018-04-07T06:39:59.169Z,79.84
2018-04-07T06:42:30.125Z,79.17
2018-04-07T06:45:00.206Z,79.01
2018-04-07T06:47:45.127Z,78.69
2018-04-07T06:50:16.537Z,78.06
2018-04-07T06:52:48.156Z,77.71
2018-04-07T06:55:19.152Z,77.03
2018-04-07T06:57:50.518Z,76.58
2018-04-07T07:00:20.882Z,75.34
2018-04-07T07:02:51.664Z,75.41
2018-04-07T07:05:22.788Z,74.02
2018-04-07T07:07:53.083Z,73.53
2018-04-07T07:10:24.648Z,72.12
2018-04-07T07:12:55.551Z,72.61
2018-04-07T07:15:25.998Z,72.12
2018-04-07T07:17:58.125Z,71.92
2018-04-07T07:20:29.576Z,70.60
2018-04-07T07:22:59.764Z,70.61
2018-04-07T07:25:29.022Z,70.64
2018-04-07T07:27:57.602Z,70.10
2018-04-07T07:30:26.110Z,70.14
2018-04-07T07:32:54.735Z,68.13
2018-04-07T07:35:35.621Z,68.60
2018-04-07T07:38:09.587Z,68.14
2018-04-07T07:40:39.050Z,69.53
2018-04-07T07:43:09.530Z,69.72
2018-04-07T07:45:58.587Z,68.99
2018-04-07T07:48:37.983Z,67.64
2018-04-07T07:51:27.636Z,67.59
2018-04-07T07:53:59.481Z,68.36
2018-04-07T07:56:41.134Z,67.72
2018-04-07T07:59:21.036Z,67.08
2018-04-07T08:01:51.792Z,67.53
2018-04-07T08:04:23.308Z,66.51
2018-04-07T08:06:54.988Z,64.16
2018-04-07T08:09:30.376Z,65.22
2018-04-07T08:12:01.328Z,63.91
2018-04-07T08:14:33.012Z,64.76
2018-04-07T08:17:05.662Z,64.61
2018-04-07T08:19:36.984Z,64.37
2018-04-07T08:29:31.910Z,62.62
2018-04-07T08:32:08.955Z,60.77
2018-04-07T08:38:02.376Z,60.29
2018-04-07T08:40:36.441Z,59.74
2018-04-07T08:44:19.098Z,60.34
2018-04-07T08:46:52.031Z,59.00
2018-04-07T08:49:23.102Z,59.02
2018-04-07T08:51:56.526Z,57.87
2018-04-07T08:54:29.957Z,56.92
2018-04-07T08:57:00.844Z,56.01
2018-04-07T08:59:35.853Z,53.81
2018-04-07T09:02:08.118Z,52.91
2018-04-07T09:04:38.679Z,46.24
2018-04-07T09:07:10.800Z,42.05
2018-04-07T09:09:45.524Z,39.43
2018-04-07T09:12:16.944Z,36.45
2018-04-07T09:14:50.034Z,37.45
2018-04-07T09:17:23.615Z,30.34
2018-04-07T09:19:56.308Z,31.80
2018-04-07T09:22:31.228Z,38.82
2018-04-07T09:25:03.964Z,37.23
2018-04-07T09:27:38.132Z,30.19
2018-04-07T09:30:11.266Z,34.36
2018-04-07T09:32:43.831Z,33.39
2018-04-07T09:35:17.179Z,30.73
2018-04-07T09:37:48.926Z,29.05
2018-04-07T09:40:21.228Z,30.43
2018-04-07T09:42:55.778Z,22.54
2018-04-07T09:48:02.364Z,25.21
2018-04-07T09:50:31.456Z,24.25
2018-04-07T09:55:36.286Z,22.09
2018-04-07T09:58:05.372Z,25.07
2018-04-07T10:00:34.470Z,25.69
2018-04-07T10:03:03.877Z,24.62
2018-04-07T10:05:33.895Z,25.86
2018-04-07T10:08:02.950Z,22.95
2018-04-07T10:10:34.771Z,24.66
2018-04-07T10:13:06.711Z,22.82
2018-04-07T10:15:38.246Z,18.64
2018-04-07T10:20:48.072Z,23.37
2018-04-07T10:23:21.428Z,22.39
2018-04-07T10:25:54.242Z,19.83
2018-04-07T10:28:28.079Z,22.11
2018-04-07T10:31:01.204Z,21.18
2018-04-07T10:33:34.044Z,20.71
2018-04-07T10:36:06.610Z,19.81
2018-04-07T10:38:41.077Z,20.81
2018-04-07T10:41:14.714Z,20.34
2018-04-07T10:43:47.869Z,18.31
2018-04-07T10:46:19.502Z,19.00
2018-04-07T10:48:53.677Z,18.64
2018-04-07T10:51:26.196Z,17.36
2018-04-07T10:56:32.339Z,16.78
2018-04-07T10:59:06.173Z,16.82
2018-04-07T11:01:39.022Z,16.15
2018-04-07T11:04:11.745Z,17.86
2018-04-07T11:06:43.855Z,17.18
2018-04-07T11:09:16.862Z,17.14
2018-04-07T11:11:49.460Z,16.77
2018-04-07T11:14:20.563Z,16.09
2018-04-07T11:16:53.014Z,16.05
2018-04-07T11:19:25.576Z,15.40
2018-04-07T11:21:58.251Z,15.49
2018-04-07T11:24:29.871Z,15.50
2018-04-07T11:27:00.922Z,14.29
2018-04-07T11:29:35.240Z,15.27
2018-04-07T11:32:09.006Z,16.38
2018-04-07T11:34:42.296Z,15.27
2018-04-07T11:37:15.269Z,14.79
2018-04-07T11:39:48.473Z,15.13
2018-04-07T11:42:20.229Z,14.24
2018-04-07T11:44:52.736Z,14.75
2018-04-07T11:47:25.566Z,14.30
2018-04-07T11:49:56.611Z,13.98
2018-04-07T11:52:28.046Z,12.32
2018-04-07T11:54:59.697Z,14.28
2018-04-07T11:57:34.045Z,13.64
2018-04-07T12:00:09.300Z,12.76
2018-04-07T12:02:43.255Z,14.41
2018-04-07T12:05:16.536Z,12.09
2018-04-07T12:07:51.008Z,12.57
2018-04-07T12:10:24.436Z,12.92
2018-04-07T12:12:57.112Z,12.96
2018-04-07T12:15:26.183Z,13.26
2018-04-07T12:17:59.536Z,13.07
2018-04-07T12:20:32.223Z,13.14
2018-04-07T12:23:01.273Z,11.20
2018-04-07T12:28:06.088Z,12.56
2018-04-07T12:30:36.337Z,13.31
2018-04-07T12:33:05.359Z,12.80
2018-04-07T12:35:34.544Z,12.20
2018-04-07T12:38:03.582Z,12.43
2018-04-07T12:40:32.943Z,12.03
2018-04-07T12:43:02.010Z,12.14
2018-04-07T12:45:32.282Z,11.58
2018-04-07T12:48:01.456Z,11.71
2018-04-07T12:50:30.546Z,11.13
2018-04-07T12:52:59.840Z,11.67
2018-04-07T12:55:28.887Z,11.04
2018-04-07T12:57:58.836Z,11.09
2018-04-07T13:00:27.876Z,11.38
2018-04-07T13:05:32.835Z,10.50
2018-04-07T13:08:06.135Z,11.08
2018-04-07T13:10:38.780Z,11.85
2018-04-07T13:13:10.968Z,11.00
2018-04-07T13:15:43.853Z,11.70
2018-04-07T13:18:17.866Z,11.99
2018-04-07T13:20:50.818Z,11.77
2018-04-07T13:28:36.940Z,10.97
2018-04-07T13:31:09.682Z,11.81
2018-04-07T13:33:43.090Z,12.66
2018-04-07T13:36:15.256Z,12.24
2018-04-07T13:38:47.840Z,12.05
2018-04-07T13:41:20.216Z,12.01
2018-04-07T13:46:29.192Z,10.87
2018-04-07T13:51:37.373Z,11.32
2018-04-07T13:54:09.277Z,11.61
2018-04-07T13:56:42.277Z,12.61
2018-04-07T13:59:15.223Z,12.26
2018-04-07T14:01:47.980Z,12.95
2018-04-07T14:04:19.556Z,12.29
2018-04-07T14:06:52.585Z,11.82
2018-04-07T14:09:25.278Z,11.20
2018-04-07T14:11:59.046Z,11.36
2018-04-07T14:14:31.048Z,11.97
2018-04-07T14:17:04.272Z,12.50
2018-04-07T14:19:38.476Z,12.18
2018-04-07T14:22:10.309Z,12.33
2018-04-07T14:24:43.250Z,12.30
2018-04-07T14:27:16.252Z,12.27
2018-04-07T14:29:48.900Z,12.28
2018-04-07T14:35:00.157Z,12.51
2018-04-07T14:37:32.424Z,13.05
2018-04-07T14:40:05.294Z,13.41
2018-04-07T14:42:37.974Z,13.61
2018-04-07T14:45:10.273Z,13.64
2018-04-07T14:47:39.594Z,14.12
2018-04-07T14:50:11.828Z,14.50
2018-04-07T14:52:45.157Z,14.78
2018-04-07T14:55:17.878Z,14.26
2018-04-07T14:57:49.205Z,15.45
2018-04-07T15:00:22.126Z,14.38
2018-04-07T15:02:54.536Z,14.50
2018-04-07T15:08:03.493Z,14.04
2018-04-07T15:10:36.339Z,17.10
2018-04-07T15:13:06.877Z,15.48
2018-04-07T15:15:39.234Z,15.74
2018-04-07T15:18:11.172Z,19.03
2018-04-07T15:20:43.390Z,18.78
2018-04-07T15:23:12.807Z,17.70
2018-04-07T15:25:41.924Z,18.25
2018-04-07T15:28:11.012Z,19.14
2018-04-07T15:30:40.659Z,17.46
2018-04-07T15:33:10.238Z,15.54
2018-04-07T15:35:39.443Z,14.94
2018-04-07T15:38:09.442Z,14.70
2018-04-07T15:40:38.499Z,15.29
2018-04-07T15:43:08.900Z,15.15
2018-04-07T15:45:37.957Z,16.93
2018-04-07T15:48:08.186Z,16.90
2018-04-07T15:50:37.372Z,17.00
2018-04-07T15:53:06.444Z,16.49
2018-04-07T15:55:35.511Z,17.83
2018-04-07T15:58:04.588Z,18.10
2018-04-07T16:00:33.661Z,17.13
2018-04-07T16:03:03.220Z,17.20
2018-04-07T16:08:09.691Z,16.37
2018-04-07T16:10:38.724Z,18.10
2018-04-07T16:13:08.813Z,20.48
2018-04-07T16:15:37.876Z,21.82
2018-04-07T16:18:08.200Z,22.37
2018-04-07T16:20:37.260Z,25.01
2018-04-07T16:23:07.065Z,23.63
2018-04-07T16:25:36.494Z,26.40
2018-04-07T16:28:05.772Z,25.52
2018-04-07T16:30:34.850Z,26.40
2018-04-07T16:33:04.389Z,26.56
2018-04-07T16:35:33.446Z,27.96
2018-04-07T16:38:02.515Z,27.84
2018-04-07T16:43:07.811Z,29.21
2018-04-07T16:45:38.272Z,29.84
2018-04-07T16:48:07.323Z,31.82
2018-04-07T16:50:37.942Z,29.98
2018-04-07T16:53:07.051Z,32.09
2018-04-07T16:55:36.139Z,31.63
2018-04-07T16:58:05.241Z,30.65
2018-04-07T17:00:34.286Z,31.94
2018-04-07T17:03:03.388Z,31.94
2018-04-07T17:05:32.640Z,34.34
2018-04-07T17:08:01.902Z,32.66
2018-04-07T17:13:06.731Z,33.11
2018-04-07T17:15:36.276Z,33.75
2018-04-07T17:18:05.405Z,36.65
2018-04-07T17:20:34.802Z,35.56
2018-04-07T17:23:04.609Z,35.16
2018-04-07T17:25:33.655Z,35.32
2018-04-07T17:30:39.381Z,37.16
2018-04-07T17:33:08.411Z,34.70
2018-04-07T17:35:38.629Z,38.50
2018-04-07T17:38:07.669Z,37.73
2018-04-07T17:40:37.796Z,35.23
2018-04-07T17:43:06.868Z,37.05
2018-04-07T17:45:36.461Z,37.50
2018-04-07T17:48:05.542Z,38.22
2018-04-07T17:50:34.604Z,39.04
2018-04-07T17:53:03.774Z,37.13
2018-04-07T17:55:32.787Z,38.52
2018-04-07T17:58:01.884Z,37.72
2018-04-07T18:00:31.379Z,38.80
2018-04-07T18:03:00.399Z,38.97
2018-04-07T18:05:29.449Z,40.02
2018-04-07T18:07:58.731Z,39.24
2018-04-07T18:10:36.330Z,38.13
2018-04-07T18:13:05.603Z,36.11
2018-04-07T18:15:34.657Z,38.22
2018-04-07T18:18:03.891Z,36.49
2018-04-07T18:20:33.752Z,36.98
2018-04-07T18:23:02.816Z,38.80
2018-04-07T18:25:31.853Z,38.04
2018-04-07T18:28:02.533Z,37.66
2018-04-07T18:30:31.756Z,37.94
2018-04-07T18:33:00.813Z,37.97
2018-04-07T18:35:30.171Z,38.29
2018-04-07T18:37:59.242Z,40.41
2018-04-07T18:40:28.292Z,42.83
2018-04-07T18:42:57.350Z,41.93
2018-04-07T18:45:26.398Z,44.99
2018-04-07T18:47:55.515Z,43.56
2018-04-07T18:50:24.593Z,43.76
2018-04-07T18:52:53.895Z,43.72
2018-04-07T18:55:23.029Z,44.73
2018-04-07T18:57:52.087Z,46.38
2018-04-07T19:02:56.910Z,48.59
2018-04-07T19:05:25.968Z,48.76
2018-04-07T19:07:55.047Z,48.95
2018-04-07T19:10:24.133Z,47.72
2018-04-07T19:12:53.966Z,49.94
2018-04-07T19:15:23.019Z,50.26
2018-04-07T19:17:52.279Z,48.65
2018-04-07T19:20:21.336Z,50.17
2018-04-07T19:22:50.581Z,50.95
2018-04-07T19:25:19.726Z,48.75
2018-04-07T19:30:24.788Z,53.71
2018-04-07T19:32:53.855Z,53.44
2018-04-07T19:35:22.978Z,55.87
2018-04-07T19:37:52.034Z,53.74
2018-04-07T19:40:21.225Z,52.60
2018-04-07T19:42:50.287Z,60.13
2018-04-07T19:45:19.423Z,56.00
2018-04-07T19:47:48.507Z,55.26
2018-04-07T19:50:17.640Z,56.09
2018-04-07T19:52:47.083Z,57.09
2018-04-07T19:55:16.136Z,57.01
2018-04-07T19:57:45.185Z,54.38
2018-04-07T20:00:14.265Z,55.52
2018-04-07T20:02:43.552Z,52.94
2018-04-07T20:05:12.598Z,54.44
2018-04-07T20:07:41.660Z,52.74
2018-04-07T20:10:11.127Z,54.68
2018-04-07T20:12:40.362Z,53.29
2018-04-07T20:15:09.411Z,55.72
2018-04-07T20:20:14.425Z,55.93
2018-04-07T20:22:43.692Z,56.12
2018-04-07T20:25:12.773Z,56.76
2018-04-07T20:27:41.878Z,56.95
2018-04-07T20:30:10.927Z,56.27
2018-04-07T20:32:40.210Z,54.74
2018-04-07T20:35:09.404Z,54.50
2018-04-07T20:37:39.755Z,58.29
2018-04-07T20:40:08.796Z,58.08
2018-04-07T20:45:13.540Z,60.06
2018-04-07T20:47:42.800Z,58.34
2018-04-07T20:50:12.102Z,58.23
2018-04-07T20:52:41.134Z,57.15
2018-04-07T20:55:10.269Z,57.75
2018-04-07T20:57:40.090Z,56.92
2018-04-07T21:00:09.127Z,56.70
2018-04-07T21:02:39.260Z,57.71
2018-04-07T21:05:08.373Z,57.59
2018-04-07T21:07:38.774Z,62.32
2018-04-07T21:12:43.978Z,62.95
2018-04-07T21:15:13.042Z,66.76
2018-04-07T21:17:42.132Z,66.13
2018-04-07T21:20:11.160Z,61.58
2018-04-07T21:22:40.366Z,60.63
2018-04-07T21:25:10.346Z,60.83
2018-04-07T21:27:40.882Z,61.46
2018-04-07T21:30:10.000Z,60.97
2018-04-07T21:32:40.520Z,60.66
2018-04-07T21:35:09.837Z,61.52
2018-04-07T21:37:39.763Z,65.03
2018-04-07T21:40:08.854Z,64.44
2018-04-07T21:42:39.323Z,65.18
2018-04-07T21:45:08.379Z,65.57
2018-04-07T21:47:38.643Z,63.69
2018-04-07T21:52:43.629Z,71.32
2018-04-07T21:55:12.768Z,68.44
2018-04-07T21:57:41.806Z,64.53
2018-04-07T22:00:10.870Z,63.61
2018-04-07T22:02:40.770Z,65.61
2018-04-07T22:05:09.813Z,66.78
2018-04-07T22:10:15.864Z,64.72
2018-04-07T22:12:45.081Z,67.32
2018-04-07T22:15:14.379Z,66.63
2018-04-07T22:17:44.589Z,67.54
2018-04-07T22:20:13.883Z,67.94
2018-04-07T22:22:48.669Z,66.63
2018-04-07T22:30:38.327Z,66.82
2018-04-07T22:33:15.754Z,66.30
2018-04-07T22:35:45.309Z,64.89
2018-04-07T22:38:14.335Z,66.26
2018-04-07T22:40:43.455Z,66.41
2018-04-07T22:43:12.510Z,66.57
2018-04-07T22:48:17.376Z,66.70
2018-04-07T22:50:46.409Z,68.42
2018-04-07T22:53:15.530Z,71.01
2018-04-07T22:55:44.968Z,68.88
2018-04-07T22:58:14.059Z,68.41
2018-04-07T23:00:43.293Z,68.58
2018-04-07T23:03:12.379Z,67.91
2018-04-07T23:05:41.579Z,68.85
2018-04-07T23:08:19.267Z,68.45
2018-04-07T23:10:49.043Z,67.11
2018-04-07T23:13:21.179Z,67.56
2018-04-07T23:15:53.689Z,67.39
2018-04-07T23:18:24.072Z,74.55
2018-04-07T23:20:55.069Z,79.38
2018-04-07T23:23:28.672Z,76.46
2018-04-07T23:25:58.004Z,73.14
2018-04-07T23:31:17.579Z,70.30
2018-04-07T23:33:48.501Z,71.34
2018-04-07T23:36:17.771Z,77.54
2018-04-07T23:41:27.489Z,71.53
2018-04-07T23:43:56.881Z,73.85
2018-04-07T23:46:29.425Z,75.70
2018-04-07T23:49:00.375Z,75.70
2018-04-07T23:51:32.058Z,75.17
2018-04-07T23:54:06.597Z,71.66
2018-04-07T23:56:38.776Z,71.28
2018-04-07T23:59:09.242Z,72.55
